createdAt,value
2019-04-10T00:00:10.839Z,18.10
2019-04-10T00:02:39.758Z,18.05
2019-04-10T00:05:09.661Z,17.98
2019-04-10T00:07:38.234Z,19.00
2019-04-10T00:10:07.742Z,16.95
2019-04-10T00:12:36.357Z,19.42
2019-04-10T00:15:05.547Z,16.50
2019-04-10T00:17:34.084Z,16.85
2019-04-10T00:20:04.333Z,15.68
2019-04-10T00:22:33.978Z,16.55
2019-04-10T00:25:02.636Z,16.27
2019-04-10T00:27:31.210Z,17.90
2019-04-10T00:30:00.575Z,17.65
2019-04-10T00:32:29.964Z,16.42
2019-04-10T00:34:58.680Z,17.17
2019-04-10T00:37:29.965Z,16.23
2019-04-10T00:39:57.309Z,16.17
2019-04-10T00:42:26.111Z,16.35
2019-04-10T00:44:55.037Z,17.17
2019-04-10T00:47:23.576Z,16.97
2019-04-10T00:49:52.149Z,17.02
2019-04-10T00:52:20.611Z,17.87
2019-04-10T00:54:49.063Z,18.30
2019-04-10T00:57:17.566Z,17.55
2019-04-10T00:59:46.024Z,18.05
2019-04-10T01:02:14.487Z,17.92
2019-04-10T01:04:42.984Z,17.35
2019-04-10T01:07:11.451Z,17.70
2019-04-10T01:09:39.992Z,17.82
2019-04-10T01:12:08.562Z,17.52
2019-04-10T01:14:37.976Z,16.90
2019-04-10T01:17:06.696Z,17.25
2019-04-10T01:19:36.279Z,17.80
2019-04-10T01:22:05.234Z,17.17
2019-04-10T01:24:33.696Z,17.43
2019-04-10T01:27:03.370Z,18.45
2019-04-10T01:29:31.940Z,16.97
2019-04-10T01:32:01.387Z,17.40
2019-04-10T01:34:30.180Z,16.57
2019-04-10T01:36:58.635Z,17.45
2019-04-10T01:39:28.733Z,17.05
2019-04-10T01:41:57.230Z,16.87
2019-04-10T01:44:26.811Z,16.95
2019-04-10T01:46:55.437Z,17.07
2019-04-10T01:49:24.047Z,18.10
2019-04-10T01:51:52.508Z,17.30
2019-04-10T01:54:20.987Z,18.07
2019-04-10T01:56:50.159Z,17.57
2019-04-10T01:59:21.435Z,17.55
2019-04-10T02:02:00.986Z,17.67
2019-04-10T02:06:57.954Z,18.15
2019-04-10T02:09:27.626Z,17.75
2019-04-10T02:14:24.997Z,17.17
2019-04-10T02:16:53.568Z,17.37
2019-04-10T02:19:22.104Z,17.07
2019-04-10T02:21:50.560Z,18.00
2019-04-10T02:24:19.312Z,17.35
2019-04-10T02:26:47.776Z,17.73
2019-04-10T02:29:16.236Z,17.67
2019-04-10T02:31:46.208Z,16.45
2019-04-10T02:34:14.966Z,17.52
2019-04-10T02:36:44.522Z,14.60
2019-04-10T02:41:43.976Z,16.20
2019-04-10T02:44:12.850Z,17.77
2019-04-10T02:46:41.798Z,16.57
2019-04-10T02:49:12.113Z,17.73
2019-04-10T02:51:41.287Z,17.23
2019-04-10T02:54:11.231Z,17.35
2019-04-10T02:56:40.995Z,17.87
2019-04-10T02:59:11.077Z,17.10
2019-04-10T03:01:40.024Z,17.50
2019-04-10T03:04:09.790Z,17.40
2019-04-10T03:06:39.567Z,17.77
2019-04-10T03:11:39.158Z,16.10
2019-04-10T03:14:08.148Z,17.37
2019-04-10T03:16:37.600Z,15.63
2019-04-10T03:19:07.394Z,15.35
2019-04-10T03:21:36.101Z,15.10
2019-04-10T03:24:04.728Z,17.25
2019-04-10T03:26:33.991Z,12.55
2019-04-10T03:29:03.252Z,16.70
2019-04-10T03:31:34.172Z,16.82
2019-04-10T03:34:06.090Z,16.77
2019-04-10T03:36:38.648Z,16.85
2019-04-10T03:39:09.329Z,15.90
2019-04-10T03:41:40.018Z,15.35
2019-04-10T03:44:08.766Z,15.93
2019-04-10T03:46:39.949Z,16.87
2019-04-10T03:49:07.526Z,16.12
2019-04-10T03:51:36.633Z,16.53
2019-04-10T03:54:05.246Z,16.87
2019-04-10T03:56:34.025Z,15.30
2019-04-10T03:59:02.657Z,17.32
2019-04-10T04:01:32.021Z,16.15
2019-04-10T04:04:01.467Z,16.00
2019-04-10T04:06:30.119Z,16.35
2019-04-10T04:09:06.693Z,16.57
2019-04-10T04:11:29.398Z,15.58
2019-04-10T04:13:57.996Z,15.75
2019-04-10T04:16:26.881Z,17.00
2019-04-10T04:18:55.584Z,17.07
2019-04-10T04:21:25.841Z,15.60
2019-04-10T04:23:55.232Z,16.27
2019-04-10T04:26:23.812Z,16.65
2019-04-10T04:28:52.547Z,17.30
2019-04-10T04:31:22.897Z,16.30
2019-04-10T04:33:51.519Z,16.40
2019-04-10T04:36:20.432Z,16.97
2019-04-10T04:38:49.228Z,17.05
2019-04-10T04:41:17.744Z,16.42
2019-04-10T04:43:47.604Z,15.35
2019-04-10T04:46:16.499Z,15.58
2019-04-10T04:48:45.368Z,15.58
2019-04-10T04:51:14.004Z,15.93
2019-04-10T04:53:42.640Z,15.25
2019-04-10T04:56:11.491Z,16.10
2019-04-10T04:58:40.123Z,16.25
2019-04-10T05:01:08.647Z,15.83
2019-04-10T05:03:37.552Z,16.32
2019-04-10T05:06:06.191Z,15.78
2019-04-10T05:08:34.725Z,15.13
2019-04-10T05:11:04.224Z,15.68
2019-04-10T05:16:02.554Z,12.88
2019-04-10T05:18:31.737Z,14.75
2019-04-10T05:21:00.942Z,15.50
2019-04-10T05:23:29.473Z,14.45
2019-04-10T05:25:59.031Z,13.78
2019-04-10T05:28:28.500Z,14.73
2019-04-10T05:30:58.936Z,14.15
2019-04-10T05:35:55.387Z,14.10
2019-04-10T05:38:24.898Z,13.18
2019-04-10T05:40:53.588Z,13.80
2019-04-10T05:43:22.117Z,14.20
2019-04-10T05:45:50.709Z,14.28
2019-04-10T05:48:21.898Z,13.43
2019-04-10T05:50:57.921Z,13.58
2019-04-10T05:53:20.400Z,13.08
2019-04-10T05:55:49.352Z,13.30
2019-04-10T05:58:18.005Z,11.65
2019-04-10T06:00:47.133Z,12.75
2019-04-10T06:03:16.512Z,11.45
2019-04-10T06:05:45.069Z,12.30
2019-04-10T06:08:14.001Z,11.90
2019-04-10T06:10:43.575Z,11.55
2019-04-10T06:15:41.212Z,11.22
2019-04-10T06:18:11.091Z,10.88
2019-04-10T06:20:41.669Z,10.48
2019-04-10T06:23:11.460Z,11.38
2019-04-10T06:25:41.928Z,10.60
2019-04-10T06:28:10.302Z,11.22
2019-04-10T06:30:39.799Z,11.57
2019-04-10T06:35:38.356Z,10.78
2019-04-10T06:38:06.963Z,10.78
2019-04-10T06:40:35.607Z,10.75
2019-04-10T06:43:04.447Z,10.80
2019-04-10T06:45:35.732Z,10.98
2019-04-10T06:48:04.392Z,10.48
2019-04-10T06:50:32.945Z,11.50
2019-04-10T06:53:01.529Z,11.43
2019-04-10T06:55:30.279Z,11.38
2019-04-10T06:57:59.390Z,11.20
2019-04-10T07:00:28.633Z,11.48
2019-04-10T07:02:57.281Z,10.78
2019-04-10T07:05:37.103Z,11.65
2019-04-10T07:08:05.729Z,10.80
2019-04-10T07:10:32.260Z,11.18
2019-04-10T07:12:57.121Z,11.93
2019-04-10T07:15:25.681Z,11.28
2019-04-10T07:17:55.370Z,11.60
2019-04-10T07:22:53.341Z,10.97
2019-04-10T07:25:21.935Z,10.60
2019-04-10T07:27:50.497Z,11.53
2019-04-10T07:30:19.539Z,11.30
2019-04-10T07:32:49.178Z,10.58
2019-04-10T07:35:21.464Z,12.33
2019-04-10T07:37:52.598Z,11.73
2019-04-10T07:40:18.694Z,10.55
2019-04-10T07:42:48.278Z,11.55
2019-04-10T07:45:17.468Z,11.38
2019-04-10T07:47:46.235Z,11.13
2019-04-10T07:50:16.382Z,11.33
2019-04-10T07:52:45.909Z,11.22
2019-04-10T07:55:14.962Z,11.18
2019-04-10T07:57:47.154Z,11.05
2019-04-10T08:00:16.705Z,10.88
2019-04-10T08:02:45.213Z,11.60
2019-04-10T08:05:14.455Z,11.43
2019-04-10T08:07:43.133Z,10.45
2019-04-10T08:10:12.083Z,11.28
2019-04-10T08:12:47.680Z,10.58
2019-04-10T08:15:11.295Z,10.53
2019-04-10T08:17:40.974Z,10.95
2019-04-10T08:22:44.873Z,10.85
2019-04-10T08:25:14.272Z,10.35
2019-04-10T08:27:43.795Z,9.75
2019-04-10T08:30:12.901Z,10.70
2019-04-10T08:32:53.397Z,9.75
2019-04-10T08:35:11.793Z,10.08
2019-04-10T08:37:41.106Z,10.60
2019-04-10T08:40:10.029Z,10.30
2019-04-10T08:42:40.162Z,10.98
2019-04-10T08:45:09.326Z,10.32
2019-04-10T08:47:37.908Z,10.48
2019-04-10T08:50:07.921Z,10.48
2019-04-10T08:52:37.051Z,10.20
2019-04-10T08:55:06.275Z,10.95
2019-04-10T08:57:36.113Z,11.08
2019-04-10T09:00:10.188Z,10.88
2019-04-10T09:02:39.037Z,10.60
2019-04-10T09:05:09.180Z,11.40
2019-04-10T09:07:38.218Z,10.60
2019-04-10T09:10:08.177Z,10.70
2019-04-10T09:12:36.858Z,11.93
2019-04-10T09:15:07.663Z,10.00
2019-04-10T09:17:37.523Z,10.68
2019-04-10T09:20:07.365Z,10.55
2019-04-10T09:22:56.300Z,10.80
2019-04-10T09:25:07.638Z,11.88
2019-04-10T09:27:36.273Z,11.78
2019-04-10T09:30:06.825Z,10.60
2019-04-10T09:32:35.435Z,10.75
2019-04-10T09:35:06.517Z,11.12
2019-04-10T09:37:35.269Z,9.78
2019-04-10T09:40:07.813Z,9.93
2019-04-10T09:42:36.515Z,10.10
2019-04-10T09:45:06.034Z,10.40
2019-04-10T09:50:05.682Z,10.23
2019-04-10T09:52:35.493Z,10.58
2019-04-10T09:55:05.695Z,10.30
2019-04-10T09:57:34.625Z,9.40
2019-04-10T10:00:05.314Z,9.88
2019-04-10T10:02:33.899Z,9.90
2019-04-10T10:05:02.379Z,11.22
2019-04-10T10:07:30.973Z,11.10
2019-04-10T10:10:00.879Z,10.05
2019-04-10T10:12:29.637Z,10.35
2019-04-10T10:14:58.210Z,10.00
2019-04-10T10:17:26.679Z,10.23
2019-04-10T10:19:55.410Z,9.33
2019-04-10T10:22:25.185Z,9.97
2019-04-10T10:24:55.075Z,9.95
2019-04-10T10:27:24.699Z,10.65
2019-04-10T10:29:54.897Z,12.03
2019-04-10T10:32:24.626Z,11.55
2019-04-10T10:34:54.489Z,11.73
2019-04-10T10:37:24.113Z,11.78
2019-04-10T10:42:21.743Z,11.00
2019-04-10T10:44:50.240Z,13.48
2019-04-10T10:47:18.705Z,13.20
2019-04-10T10:49:47.280Z,13.28
2019-04-10T10:52:15.852Z,13.10
2019-04-10T10:54:45.201Z,13.80
2019-04-10T10:57:13.875Z,11.95
2019-04-10T10:59:42.530Z,13.62
2019-04-10T11:02:11.253Z,12.67
2019-04-10T11:04:39.902Z,13.80
2019-04-10T11:07:08.686Z,13.03
2019-04-10T11:09:38.161Z,13.55
2019-04-10T11:12:06.867Z,13.28
2019-04-10T11:14:35.528Z,13.33
2019-04-10T11:17:05.303Z,13.93
2019-04-10T11:19:35.387Z,13.50
2019-04-10T11:22:07.395Z,12.23
2019-04-10T11:24:38.140Z,11.70
2019-04-10T11:27:07.956Z,12.35
2019-04-10T11:29:37.651Z,12.90
2019-04-10T11:32:06.774Z,12.03
2019-04-10T11:34:35.678Z,10.88
2019-04-10T11:37:21.550Z,10.55
2019-04-10T11:39:37.254Z,11.83
2019-04-10T11:42:06.563Z,12.80
2019-04-10T11:44:36.782Z,12.33
2019-04-10T11:47:08.735Z,12.35
2019-04-10T11:49:39.237Z,11.70
2019-04-10T11:52:06.561Z,11.95
2019-04-10T11:54:40.364Z,12.17
2019-04-10T11:57:06.833Z,12.47
2019-04-10T11:59:36.655Z,11.93
2019-04-10T12:02:08.194Z,13.05
2019-04-10T12:04:48.122Z,19.37
2019-04-10T12:07:09.131Z,12.25
2019-04-10T12:12:07.025Z,10.70
2019-04-10T12:14:35.683Z,11.40
2019-04-10T12:17:05.437Z,11.53
2019-04-10T12:19:33.963Z,11.97
2019-04-10T12:22:03.175Z,11.40
2019-04-10T12:24:32.232Z,11.33
2019-04-10T12:27:00.920Z,11.15
2019-04-10T12:29:29.497Z,10.95
2019-04-10T12:31:58.567Z,10.93
2019-04-10T12:34:27.172Z,10.43
2019-04-10T12:36:55.754Z,11.22
2019-04-10T12:39:25.269Z,11.28
2019-04-10T12:41:53.985Z,11.53
2019-04-10T12:44:23.358Z,11.20
2019-04-10T12:46:53.260Z,11.68
2019-04-10T12:49:21.898Z,10.55
2019-04-10T12:51:50.469Z,11.28
2019-04-10T12:54:19.568Z,11.18
2019-04-10T12:56:48.575Z,12.20
2019-04-10T12:59:17.386Z,11.57
2019-04-10T13:01:47.025Z,10.80
2019-04-10T13:06:44.520Z,11.00
2019-04-10T13:09:14.435Z,12.18
2019-04-10T13:11:43.134Z,12.10
2019-04-10T13:14:12.583Z,11.15
2019-04-10T13:19:11.166Z,12.50
2019-04-10T13:21:40.041Z,12.53
2019-04-10T13:24:09.098Z,12.70
2019-04-10T13:26:37.879Z,12.45
2019-04-10T13:29:07.699Z,11.97
2019-04-10T13:31:37.275Z,11.68
2019-04-10T13:37:02.090Z,10.82
2019-04-10T13:39:30.836Z,11.87
2019-04-10T13:41:59.536Z,13.32
2019-04-10T13:44:28.774Z,12.13
2019-04-10T13:46:57.457Z,12.60
2019-04-10T13:49:26.289Z,11.53
2019-04-10T13:51:54.757Z,11.80
2019-04-10T13:54:23.221Z,12.10
2019-04-10T13:56:52.838Z,13.20
2019-04-10T13:59:22.487Z,12.03
2019-04-10T14:04:19.171Z,12.78
2019-04-10T14:06:49.276Z,11.87
2019-04-10T14:09:30.126Z,11.95
2019-04-10T14:11:49.564Z,13.38
2019-04-10T14:14:18.314Z,13.17
2019-04-10T14:16:46.908Z,13.27
2019-04-10T14:19:15.503Z,12.78
2019-04-10T14:21:45.027Z,12.07
2019-04-10T14:26:48.836Z,11.93
2019-04-10T14:29:14.547Z,11.83
2019-04-10T14:34:14.427Z,11.88
2019-04-10T14:36:44.260Z,12.15
2019-04-10T14:39:18.477Z,11.40
2019-04-10T14:41:44.739Z,11.73
2019-04-10T14:44:14.512Z,12.53
2019-04-10T14:46:44.269Z,11.80
2019-04-10T14:49:13.186Z,11.97
2019-04-10T14:51:41.957Z,13.85
2019-04-10T14:54:11.313Z,13.65
2019-04-10T14:56:40.087Z,13.15
2019-04-10T14:59:09.514Z,12.87
2019-04-10T15:01:41.976Z,11.93
2019-04-10T15:05:05.815Z,10.80
2019-04-10T15:07:35.194Z,12.23
2019-04-10T15:10:05.576Z,12.50
2019-04-10T15:12:34.088Z,12.33
2019-04-10T15:15:03.846Z,11.93
2019-04-10T15:17:32.893Z,13.10
2019-04-10T15:20:01.740Z,12.50
2019-04-10T15:22:30.340Z,12.67
2019-04-10T15:24:59.321Z,13.13
2019-04-10T15:27:29.156Z,13.53
2019-04-10T15:29:59.213Z,14.45
2019-04-10T15:32:27.692Z,14.45
2019-04-10T15:34:56.209Z,13.95
2019-04-10T15:37:24.961Z,13.62
2019-04-10T15:39:53.920Z,12.80
2019-04-10T15:42:23.770Z,13.18
2019-04-10T15:44:52.525Z,12.37
2019-04-10T15:47:23.113Z,13.75
2019-04-10T15:49:51.612Z,13.48
2019-04-10T15:52:20.631Z,15.03
2019-04-10T15:54:50.304Z,13.37
2019-04-10T15:57:19.523Z,13.32
2019-04-10T15:59:48.363Z,13.63
2019-04-10T16:02:17.152Z,14.63
2019-04-10T16:04:45.739Z,14.10
2019-04-10T16:07:16.106Z,13.30
2019-04-10T16:09:51.679Z,12.28
2019-04-10T16:12:18.527Z,12.03
2019-04-10T16:14:47.170Z,13.48
2019-04-10T16:17:34.993Z,12.78
2019-04-10T16:20:09.288Z,12.63
2019-04-10T16:22:42.676Z,12.78
2019-04-10T16:25:14.452Z,14.40
2019-04-10T16:27:43.343Z,13.05
2019-04-10T16:30:14.442Z,13.05
2019-04-10T16:32:44.301Z,13.48
2019-04-10T16:35:13.893Z,13.27
2019-04-10T16:40:11.646Z,14.60
2019-04-10T16:42:41.714Z,13.55
2019-04-10T16:45:10.735Z,13.93
2019-04-10T16:47:39.373Z,14.30
2019-04-10T16:50:09.166Z,13.55
2019-04-10T16:52:38.900Z,12.55
2019-04-10T16:55:08.594Z,13.50
2019-04-10T16:57:37.136Z,14.30
2019-04-10T17:00:07.027Z,14.75
2019-04-10T17:02:36.046Z,14.73
2019-04-10T17:05:08.103Z,15.48
2019-04-10T17:07:37.380Z,15.25
2019-04-10T17:10:17.655Z,14.98
2019-04-10T17:12:40.745Z,16.17
2019-04-10T17:15:10.290Z,16.07
2019-04-10T17:20:08.559Z,15.32
2019-04-10T17:25:07.839Z,16.67
2019-04-10T17:27:37.480Z,16.07
2019-04-10T17:30:08.102Z,16.15
2019-04-10T17:32:36.582Z,16.60
2019-04-10T17:35:07.862Z,15.25
2019-04-10T17:37:38.070Z,16.25
2019-04-10T17:40:08.902Z,16.60
2019-04-10T17:42:38.249Z,15.93
2019-04-10T17:45:08.161Z,16.25
2019-04-10T17:47:36.792Z,15.85
2019-04-10T17:50:07.756Z,16.20
2019-04-10T17:52:38.049Z,14.63
2019-04-10T17:55:07.793Z,14.58
2019-04-10T17:57:40.162Z,13.68
2019-04-10T18:00:11.135Z,14.58
2019-04-10T18:02:40.996Z,14.60
2019-04-10T18:05:10.604Z,15.45
2019-04-10T18:07:39.202Z,14.68
2019-04-10T18:10:08.539Z,14.55
2019-04-10T18:12:38.370Z,14.35
2019-04-10T18:15:08.164Z,14.70
2019-04-10T18:17:36.821Z,13.53
2019-04-10T18:20:06.390Z,14.23
2019-04-10T18:25:03.499Z,14.80
2019-04-10T18:27:32.339Z,15.05
2019-04-10T18:30:00.919Z,14.13
2019-04-10T18:32:29.684Z,13.35
2019-04-10T18:34:58.388Z,14.45
2019-04-10T18:37:28.571Z,14.33
2019-04-10T18:39:57.110Z,14.93
2019-04-10T18:42:26.605Z,13.60
2019-04-10T18:47:24.992Z,13.77
2019-04-10T18:49:54.000Z,13.95
2019-04-10T18:52:23.462Z,13.88
2019-04-10T18:54:52.146Z,13.83
2019-04-10T18:57:21.968Z,14.00
2019-04-10T19:00:10.135Z,13.85
2019-04-10T19:02:55.321Z,14.07
2019-04-10T19:05:28.128Z,14.65
2019-04-10T19:07:56.935Z,14.20
2019-04-10T19:10:26.405Z,14.43
2019-04-10T19:12:55.011Z,14.07
2019-04-10T19:15:24.426Z,14.07
2019-04-10T19:20:21.203Z,12.75
2019-04-10T19:22:50.668Z,12.93
2019-04-10T19:27:48.526Z,12.37
2019-04-10T19:30:39.363Z,11.78
2019-04-10T19:33:08.115Z,11.93
2019-04-10T19:35:37.273Z,11.33
2019-04-10T19:38:07.197Z,12.25
2019-04-10T19:40:38.334Z,12.05
2019-04-10T19:43:06.690Z,11.25
2019-04-10T19:45:36.238Z,13.22
2019-04-10T19:50:33.084Z,11.57
2019-04-10T19:53:02.614Z,12.15
2019-04-10T19:55:31.655Z,12.47
2019-04-10T19:58:00.350Z,11.65
2019-04-10T20:00:34.679Z,11.43
2019-04-10T20:03:03.648Z,12.15
2019-04-10T20:05:32.355Z,11.90
2019-04-10T20:08:01.665Z,11.83
2019-04-10T20:10:30.333Z,11.50
2019-04-10T20:12:59.374Z,11.63
2019-04-10T20:15:28.815Z,12.28
2019-04-10T20:17:57.545Z,12.78
2019-04-10T20:20:27.048Z,11.68
2019-04-10T20:25:24.350Z,11.55
2019-04-10T20:27:53.106Z,11.00
2019-04-10T20:30:23.698Z,12.07
2019-04-10T20:32:52.439Z,11.68
2019-04-10T20:35:22.323Z,12.55
2019-04-10T20:37:51.243Z,12.13
2019-04-10T20:40:20.750Z,13.28
2019-04-10T20:42:49.353Z,13.62
2019-04-10T20:45:18.007Z,13.72
2019-04-10T20:47:46.935Z,13.22
2019-04-10T20:50:15.640Z,13.28
2019-04-10T20:52:45.297Z,12.98
2019-04-10T20:55:14.220Z,13.35
2019-04-10T20:57:43.827Z,13.75
2019-04-10T21:02:42.651Z,12.65
2019-04-10T21:05:14.855Z,12.18
2019-04-10T21:07:43.819Z,12.75
2019-04-10T21:10:12.826Z,12.47
2019-04-10T21:12:41.934Z,12.58
2019-04-10T21:15:11.206Z,12.78
2019-04-10T21:17:39.812Z,13.05
2019-04-10T21:20:08.276Z,12.70
2019-04-10T21:22:36.769Z,13.32
2019-04-10T21:25:08.320Z,12.60
2019-04-10T21:27:37.660Z,13.48
2019-04-10T21:30:14.229Z,13.25
2019-04-10T21:32:56.878Z,12.93
2019-04-10T21:35:33.390Z,13.68
2019-04-10T21:38:02.597Z,12.47
2019-04-10T21:40:31.351Z,14.23
2019-04-10T21:42:59.845Z,12.55
2019-04-10T21:45:28.501Z,13.30
2019-04-10T21:47:57.838Z,13.07
2019-04-10T21:50:26.972Z,13.43
2019-04-10T21:52:55.656Z,13.18
2019-04-10T21:55:24.183Z,12.65
2019-04-10T21:57:52.768Z,13.40
2019-04-10T22:00:26.268Z,12.93
2019-04-10T22:02:56.122Z,11.93
2019-04-10T22:05:25.005Z,12.78
2019-04-10T22:08:03.075Z,12.13
2019-04-10T22:10:34.218Z,12.80
2019-04-10T22:13:03.742Z,11.48
2019-04-10T22:18:11.075Z,12.15
2019-04-10T22:20:39.645Z,12.03
2019-04-10T22:23:09.702Z,11.75
2019-04-10T22:25:39.437Z,12.07
2019-04-10T22:28:14.940Z,11.70
2019-04-10T22:30:43.791Z,11.73
2019-04-10T22:33:12.384Z,11.73
2019-04-10T22:35:42.017Z,10.60
2019-04-10T22:40:40.111Z,11.15
2019-04-10T22:43:08.812Z,11.45
2019-04-10T22:45:38.101Z,10.82
2019-04-10T22:48:06.856Z,10.90
2019-04-10T22:50:36.385Z,10.90
2019-04-10T22:55:33.827Z,11.75
2019-04-10T22:58:02.679Z,12.13
2019-04-10T23:00:32.682Z,11.83
2019-04-10T23:03:02.921Z,12.47
2019-04-10T23:05:32.313Z,11.97
2019-04-10T23:08:01.218Z,12.55
2019-04-10T23:10:30.110Z,11.53
2019-04-10T23:13:03.069Z,11.60
2019-04-10T23:15:29.268Z,11.70
2019-04-10T23:17:57.776Z,11.97
2019-04-10T23:20:26.381Z,11.70
2019-04-10T23:22:55.011Z,11.78
2019-04-10T23:25:24.627Z,11.45
2019-04-10T23:30:22.817Z,10.23
2019-04-10T23:32:51.465Z,11.03
2019-04-10T23:35:21.180Z,11.13
2019-04-10T23:37:50.994Z,10.10
2019-04-10T23:40:20.878Z,10.13
2019-04-10T23:43:01.315Z,10.28
2019-04-10T23:45:19.918Z,10.43
2019-04-10T23:47:48.772Z,10.53
2019-04-10T23:50:18.460Z,10.85
2019-04-10T23:52:47.880Z,9.95
2019-04-10T23:55:17.671Z,11.15
2019-04-10T23:57:46.477Z,10.00
